Terminal Aerodrome Forecast
Issued by NWS Sterling, VA

Current Version | Previous Version | Graphics & Text | Print | Product List | Glossary On
Versions: 1 2 3 4 5 6 7 8 9 10 11 12 13 14 15 16 17 18 19 20 21 22 23 24 25 26
510
FTUS41 KLWX 191453 AAA
TAFIAD
TAF AMD
KIAD 191453Z 1915/2018 30007KT P6SM BKN250
     FM191800 26008KT P6SM VCTS BKN035CB BKN050
     FM192000 27008KT P6SM VCTS FEW035 SCT050CB
     FM192200 28007KT P6SM FEW050 SCT130
     FM201300 32011KT P6SM FEW250
     FM201500 32012KT P6SM SCT035
     FM201700 31011KT P6SM FEW250=

USA.gov is the U.S. government's official web portal to all federal, state and local government web resources and services.